Time;durP1;ratioP1;P1;durP2;ratioP2;P2;SDS_P1;SDS_P2;PMS_P1;PMS_P2;Temp;Humidity;BMP_temperature;BMP_pressure;BME280_temperature;BME280_humidity;BME280_pressure;Samples;Min_cycle;Max_cycle;Signal;HPM_P1;HPM_P2
2023/02/19 00:01:12;;;;;;;6.82;4.32;;;;;;;4.95;59.27;95079.56;5089872;28;20071;-76
2023/02/19 00:03:37;;;;;;;8.25;3.47;;;;;;;4.78;60.41;95065.06;5056296;28;20073;-76
2023/02/19 00:06:04;;;;;;;8.50;3.75;;;;;;;4.79;60.92;95090.72;5072622;28;20039;-75
2023/02/19 00:08:33;;;;;;;7.22;3.80;;;;;;;4.77;61.32;95089.16;5090419;28;20028;-75
2023/02/19 00:11:02;;;;;;;6.07;4.07;;;;;;;4.66;61.36;95076.88;5089564;28;20032;-76
2023/02/19 00:13:28;;;;;;;6.32;3.95;;;;;;;4.43;60.36;95050.66;5072808;28;20067;-76
2023/02/19 00:15:55;;;;;;;7.32;3.92;;;;;;;4.58;60.53;95063.59;5072653;28;20064;-75
2023/02/19 00:18:20;;;;;;;9.02;4.30;;;;;;;4.59;60.44;95088.41;5072563;28;20034;-75
2023/02/19 00:20:46;;;;;;;12.25;5.10;;;;;;;4.55;59.73;95079.19;5089410;28;20028;-76
2023/02/19 00:23:11;;;;;;;7.82;5.05;;;;;;;4.35;60.00;95070.00;5088842;28;20395;-75
2023/02/19 00:25:37;;;;;;;10.40;6.45;;;;;;;4.38;60.04;95070.66;5089634;28;20063;-76
2023/02/19 00:28:03;;;;;;;11.48;5.10;;;;;;;4.46;59.77;95072.81;5072128;28;20036;-75
2023/02/19 00:30:28;;;;;;;7.07;4.47;;;;;;;4.46;60.18;95085.69;5072174;28;20016;-75
2023/02/19 00:32:54;;;;;;;11.00;5.45;;;;;;;4.09;61.22;95058.53;5089139;28;20036;-76
2023/02/19 00:35:20;;;;;;;11.65;5.60;;;;;;;4.15;61.55;95078.78;5089749;28;20036;-75
2023/02/19 00:37:45;;;;;;;9.48;5.45;;;;;;;4.07;61.78;95039.78;5069580;28;20044;-76
2023/02/19 00:40:11;;;;;;;6.97;4.53;;;;;;;4.10;61.87;95055.06;5088581;28;20031;-77
2023/02/19 00:42:36;;;;;;;6.05;4.00;;;;;;;4.12;60.56;95046.34;5056195;28;20036;-77
2023/02/19 00:45:02;;;;;;;7.15;4.20;;;;;;;4.33;60.49;95059.78;5072152;28;20028;-76
2023/02/19 00:47:27;;;;;;;10.95;6.45;;;;;;;4.22;60.77;95068.09;5089208;28;20028;-76
2023/02/19 00:49:53;;;;;;;11.45;6.18;;;;;;;3.96;61.42;95056.63;5090695;28;20044;-76
2023/02/19 00:52:18;;;;;;;9.00;5.65;;;;;;;3.88;61.31;95040.78;5075257;28;20028;-76
2023/02/19 00:54:43;;;;;;;9.23;5.30;;;;;;;3.94;61.33;95057.63;5092844;28;20047;-77
2023/02/19 00:57:09;;;;;;;9.02;4.85;;;;;;;4.05;61.06;95055.31;5092790;28;20089;-76
2023/02/19 00:59:35;;;;;;;8.05;5.07;;;;;;;3.96;62.21;95024.97;5076090;28;20024;-76
2023/02/19 01:02:01;;;;;;;15.77;7.55;;;;;;;3.82;61.86;95048.81;5075698;28;20036;-76
2023/02/19 01:04:27;;;;;;;9.20;5.50;;;;;;;3.61;61.41;95016.53;5076395;28;20032;-77
2023/02/19 01:06:52;;;;;;;12.98;6.38;;;;;;;3.73;61.80;95049.28;5092814;28;20032;-76
2023/02/19 01:09:18;;;;;;;10.40;5.60;;;;;;;3.77;62.84;95055.94;5093889;28;20035;-77
2023/02/19 01:11:44;;;;;;;11.93;7.32;;;;;;;3.78;62.97;95037.03;5072019;28;20032;-77
2023/02/19 01:14:09;;;;;;;10.63;5.90;;;;;;;3.75;63.91;95053.44;5074302;28;20407;-77
2023/02/19 01:16:35;;;;;;;9.50;4.70;;;;;;;3.83;64.25;95054.78;5075815;28;20035;-77
2023/02/19 01:19:00;;;;;;;8.65;4.70;;;;;;;3.62;62.21;95042.13;5075576;28;20393;-76
2023/02/19 01:21:26;;;;;;;8.18;4.72;;;;;;;3.44;62.20;95013.09;5075850;28;20028;-76
2023/02/19 01:23:52;;;;;;;12.20;4.72;;;;;;;3.54;62.30;95008.31;5058996;28;20031;-77
2023/02/19 01:26:19;;;;;;;8.20;4.75;;;;;;;3.63;63.43;95009.56;5092130;28;20497;-77
2023/02/19 01:28:45;;;;;;;7.47;4.75;;;;;;;3.74;63.33;95032.97;5075680;28;20104;-77
2023/02/19 01:31:17;;;;;;;9.07;5.32;;;;;;;3.62;62.34;95033.59;5076134;28;20086;-76
2023/02/19 01:33:50;;;;;;;10.55;5.47;;;;;;;3.55;62.24;95045.94;5092189;28;20032;-76
2023/02/19 01:36:15;;;;;;;9.20;5.72;;;;;;;3.53;63.75;95063.97;5075248;28;20040;-76
2023/02/19 01:38:41;;;;;;;9.27;6.60;;;;;;;3.51;63.76;95058.13;5075407;28;20028;-77
2023/02/19 01:41:08;;;;;;;11.40;6.03;;;;;;;3.68;62.19;95066.69;5075647;28;20032;-77
2023/02/19 01:43:34;;;;;;;9.95;5.32;;;;;;;3.48;62.23;95078.81;5075262;28;20020;-77
2023/02/19 01:46:00;;;;;;;10.60;5.40;;;;;;;3.34;62.81;95065.81;5075470;28;20040;-76
2023/02/19 01:48:30;;;;;;;8.75;5.80;;;;;;;3.32;63.09;95090.78;5074886;28;20515;-76
2023/02/19 01:50:58;;;;;;;7.90;4.85;;;;;;;3.43;63.77;95093.63;5075520;28;20032;-76
2023/02/19 01:53:25;;;;;;;6.90;4.95;;;;;;;3.26;64.13;95086.78;5075389;28;20059;-76
2023/02/19 01:55:52;;;;;;;8.32;5.30;;;;;;;3.28;63.90;95114.94;5074618;28;20024;-77
2023/02/19 01:58:18;;;;;;;8.95;5.07;;;;;;;3.30;63.88;95113.13;5091783;28;20047;-76
2023/02/19 02:00:43;;;;;;;8.80;5.20;;;;;;;3.33;64.45;95102.69;5075007;28;20032;-76
2023/02/19 02:03:09;;;;;;;9.02;5.53;;;;;;;3.28;63.48;95084.94;5091198;28;20028;-77
2023/02/19 02:05:37;;;;;;;9.40;5.72;;;;;;;3.52;63.72;95105.19;5075350;28;20085;-77
2023/02/19 02:10:47;;;;;;;10.23;5.60;;;;;;;3.61;62.23;95075.63;5077765;28;20093;-77
2023/02/19 02:13:12;;;;;;;11.40;5.82;;;;;;;3.91;62.11;95081.75;5073303;28;20024;-77
2023/02/19 02:16:01;;;;;;;9.32;5.43;;;;;;;3.90;61.29;95069.81;5092507;28;20019;-77
2023/02/19 02:18:34;;;;;;;10.68;6.05;;;;;;;3.97;61.30;95083.97;5077876;28;20085;-77
2023/02/19 02:21:21;;;;;;;10.55;5.55;;;;;;;4.23;61.25;95107.47;5091875;28;20063;-77
2023/02/19 02:24:37;;;;;;;10.45;5.85;;;;;;;4.16;62.02;95095.88;5092886;28;20021;-77
2023/02/19 02:27:24;;;;;;;10.75;5.35;;;;;;;4.13;62.34;95086.59;5047434;28;20193;-77
2023/02/19 02:30:11;;;;;;;10.20;5.35;;;;;;;4.24;61.04;95091.16;5092929;28;20051;-77
2023/02/19 02:32:55;;;;;;;12.05;4.97;;;;;;;4.29;61.41;95088.31;5092177;28;20534;-77
2023/02/19 02:35:31;;;;;;;10.60;5.78;;;;;;;4.26;61.70;95076.44;5093061;28;20039;-76
2023/02/19 02:37:59;;;;;;;7.85;5.25;;;;;;;4.23;61.15;95079.19;5091014;28;20032;-77
2023/02/19 02:40:25;;;;;;;7.93;5.00;;;;;;;4.00;61.45;95055.53;5074588;28;20024;-76
2023/02/19 02:42:50;;;;;;;8.60;4.43;;;;;;;4.19;61.44;95082.84;5090900;28;20512;-76
2023/02/19 02:45:35;;;;;;;8.23;4.53;;;;;;;4.10;61.15;95058.47;5091477;28;20024;-77
2023/02/19 02:48:14;;;;;;;8.07;4.25;;;;;;;4.21;60.91;95065.59;5060755;28;20531;-77
2023/02/19 02:50:43;;;;;;;8.98;4.85;;;;;;;4.05;61.24;95069.91;5074762;28;20035;-77
2023/02/19 02:55:59;;;;;;;9.05;4.78;;;;;;;4.07;60.74;95074.06;5070407;28;20040;-77
2023/02/19 02:58:24;;;;;;;10.15;5.30;;;;;;;4.28;60.35;95076.38;5071565;28;20563;-77
2023/02/19 03:03:38;;;;;;;13.25;8.10;;;;;;;3.84;61.09;95071.84;5077009;28;20118;-77
2023/02/19 03:06:05;;;;;;;9.20;5.63;;;;;;;3.80;61.31;95051.44;5057441;28;20070;-77
2023/02/19 03:08:36;;;;;;;9.77;4.35;;;;;;;4.02;60.11;95043.44;5074124;28;20039;-77
2023/02/19 03:19:17;;;;;;;10.68;4.90;;;;;;;4.26;60.16;95079.03;5074911;28;20044;-77
2023/02/19 03:19:51;;;;;;;10.38;5.95;;;;;;;3.84;60.58;95041.00;5077832;28;20055;-77
2023/02/19 03:22:33;;;;;;;10.55;6.53;;;;;;;3.90;60.74;95092.94;5073823;28;20040;-77
2023/02/19 03:27:47;;;;;;;10.02;6.30;;;;;;;3.79;62.24;95121.75;5076408;28;20047;-77
2023/02/19 03:30:19;;;;;;;10.80;7.15;;;;;;;3.62;62.34;95114.06;5073349;28;20413;-76
2023/02/19 03:32:45;;;;;;;11.00;5.63;;;;;;;3.57;62.14;95116.06;5090221;28;20039;-76
2023/02/19 03:35:16;;;;;;;7.68;4.60;;;;;;;3.51;61.51;95117.19;5073531;28;20386;-77
2023/02/19 03:37:45;;;;;;;13.07;7.13;;;;;;;3.36;62.70;95134.19;5090435;28;20032;-77
2023/02/19 03:40:10;;;;;;;14.82;8.82;;;;;;;3.21;64.27;95131.56;5074038;28;20028;-76
2023/02/19 03:42:57;;;;;;;13.70;9.07;;;;;;;3.04;65.19;95143.47;5089348;28;20039;-77
2023/02/19 03:45:41;;;;;;;14.30;9.50;;;;;;;3.05;64.51;95134.84;5089942;28;20058;-77
2023/02/19 03:48:19;;;;;;;13.18;8.05;;;;;;;3.04;64.05;95122.94;5089758;28;20080;-77
2023/02/19 03:51:01;;;;;;;11.77;7.55;;;;;;;2.95;65.06;95140.50;5090218;28;20028;-77
2023/02/19 03:53:32;;;;;;;;;;;;;;;3.03;64.84;95153.81;5090765;28;20035;-77
2023/02/19 03:56:12;;;;;;;12.70;7.35;;;;;;;2.85;65.00;95135.81;5091542;28;20049;-77
2023/02/19 03:59:16;;;;;;;13.77;7.57;;;;;;;2.86;65.00;95147.72;5071006;28;20697;-77
2023/02/19 04:01:51;;;;;;;11.52;7.20;;;;;;;2.73;65.08;95133.84;5102365;28;20120;-77
2023/02/19 04:04:34;;;;;;;16.10;7.95;;;;;;;2.73;65.05;95122.72;5053497;28;20142;-77
2023/02/19 04:07:00;;;;;;;10.55;6.35;;;;;;;2.89;65.09;95151.88;5054933;28;20413;-77
2023/02/19 04:09:29;;;;;;;12.48;7.47;;;;;;;2.87;65.60;95161.38;5068554;28;20028;-77
2023/02/19 04:11:55;;;;;;;11.50;6.93;;;;;;;2.83;66.04;95141.91;5066428;28;20043;-77
2023/02/19 04:14:23;;;;;;;12.70;7.15;;;;;;;2.74;65.59;95139.78;5086128;28;20032;-77
2023/02/19 04:16:53;;;;;;;10.75;6.85;;;;;;;2.77;66.21;95155.88;5067822;28;20074;-77
2023/02/19 04:19:19;;;;;;;12.73;6.38;;;;;;;2.58;65.82;95137.94;5069534;28;20497;-77
2023/02/19 04:21:45;;;;;;;13.38;7.13;;;;;;;2.62;65.45;95157.41;5085753;28;20109;-77
2023/02/19 04:24:22;;;;;;;10.80;6.97;;;;;;;2.56;65.43;95150.00;5069894;28;20444;-76
2023/02/19 04:26:47;;;;;;;12.85;6.45;;;;;;;2.73;65.58;95164.63;5056211;28;20040;-77
2023/02/19 04:29:13;;;;;;;18.48;6.05;;;;;;;2.76;66.54;95161.91;5072910;28;20040;-77
2023/02/19 04:31:38;;;;;;;12.50;6.22;;;;;;;2.73;66.05;95163.78;5094301;28;20043;-77
2023/02/19 04:34:04;;;;;;;10.40;6.13;;;;;;;2.10;65.78;95070.06;5055970;28;20555;-77
2023/02/19 04:36:32;;;;;;;10.90;6.28;;;;;;;2.82;66.25;95173.63;5054127;28;20404;-77
2023/02/19 04:38:57;;;;;;;13.90;6.53;;;;;;;2.76;66.43;95179.88;5071446;28;20021;-77
2023/02/19 04:41:23;;;;;;;11.73;5.90;;;;;;;2.71;66.92;95181.81;5089402;28;20043;-77
2023/02/19 04:43:48;;;;;;;10.82;6.10;;;;;;;2.64;67.23;95178.69;5089998;28;20028;-77
2023/02/19 04:46:14;;;;;;;9.52;5.55;;;;;;;2.74;67.19;95183.41;5087522;28;20047;-77
2023/02/19 04:48:41;;;;;;;9.18;6.53;;;;;;;2.84;66.61;95164.09;5090883;28;20044;-77
2023/02/19 04:51:07;;;;;;;10.52;6.00;;;;;;;2.85;66.38;95140.13;5056477;28;20471;-77
2023/02/19 04:53:32;;;;;;;10.60;6.20;;;;;;;2.91;65.14;95127.81;5072830;28;20028;-77
2023/02/19 04:56:07;;;;;;;10.55;6.05;;;;;;;3.25;65.05;95174.13;5088204;28;20059;-76
2023/02/19 04:58:33;;;;;;;16.95;10.10;;;;;;;3.33;64.71;95170.28;5090553;28;20040;-77
2023/02/19 05:00:59;;;;;;;13.98;8.55;;;;;;;3.24;64.09;95144.25;5088626;28;20078;-77
2023/02/19 05:03:24;;;;;;;10.93;7.00;;;;;;;3.56;63.26;95181.16;5088555;28;20024;-77
2023/02/19 05:05:50;;;;;;;9.82;6.55;;;;;;;3.48;62.99;95161.03;5068905;28;20032;-77
2023/02/19 05:08:15;;;;;;;8.63;5.20;;;;;;;3.65;63.06;95182.44;5053736;28;20036;-77
2023/02/19 05:10:41;;;;;;;8.30;5.15;;;;;;;3.72;63.17;95186.38;5087953;28;20436;-77
2023/02/19 05:13:06;;;;;;;8.80;4.80;;;;;;;3.65;63.21;95180.75;5088496;28;20460;-77
2023/02/19 05:15:31;;;;;;;8.55;4.88;;;;;;;3.62;64.21;95192.88;5070499;28;20032;-77
2023/02/19 05:17:57;;;;;;;6.50;4.72;;;;;;;3.52;64.54;95162.53;5053907;28;20437;-78
2023/02/19 05:20:22;;;;;;;7.88;5.20;;;;;;;3.74;63.42;95189.72;5071619;28;20039;-77
2023/02/19 05:22:48;;;;;;;7.63;4.72;;;;;;;3.76;63.59;95185.31;5071930;28;20036;-77
2023/02/19 05:25:13;;;;;;;7.93;4.68;;;;;;;3.90;63.50;95205.19;5057920;28;20028;-77
2023/02/19 05:27:39;;;;;;;10.15;4.72;;;;;;;3.69;63.77;95166.81;5075689;28;20425;-77
2023/02/19 05:30:04;;;;;;;7.32;4.80;;;;;;;3.95;64.06;95204.03;5091169;28;20032;-77
2023/02/19 05:32:30;;;;;;;9.27;5.22;;;;;;;3.98;63.77;95188.50;5075640;28;20455;-77
2023/02/19 05:34:55;;;;;;;9.57;5.53;;;;;;;3.91;63.40;95173.44;5074698;28;20028;-78
2023/02/19 05:37:21;;;;;;;9.88;5.35;;;;;;;4.23;62.91;95182.91;5074586;28;20538;-77
2023/02/19 05:39:48;;;;;;;7.68;4.90;;;;;;;4.50;62.72;95207.25;5075068;28;20543;-77
2023/02/19 05:42:14;;;;;;;8.75;5.03;;;;;;;4.70;62.91;95207.84;5075912;28;20058;-77
2023/02/19 05:44:40;;;;;;;8.52;5.43;;;;;;;4.83;62.26;95209.78;5071085;28;20085;-77
2023/02/19 05:47:05;;;;;;;10.95;5.55;;;;;;;4.85;61.87;95187.38;5071733;28;20032;-77
2023/02/19 05:49:31;;;;;;;12.07;5.88;;;;;;;4.99;62.24;95212.38;5072685;28;20047;-77
2023/02/19 05:51:56;;;;;;;9.35;5.60;;;;;;;5.18;60.58;95202.69;5089804;28;20032;-77
2023/02/19 05:54:22;;;;;;;8.40;5.45;;;;;;;5.30;60.90;95206.34;5054347;28;20113;-78
2023/02/19 05:56:47;;;;;;;8.48;5.22;;;;;;;5.43;61.11;95214.22;5068667;28;20490;-76
2023/02/19 05:59:21;;;;;;;13.65;8.40;;;;;;;5.50;61.45;95193.16;5089510;28;20040;-77
2023/02/19 06:01:47;;;;;;;15.60;7.38;;;;;;;5.57;61.41;95215.09;5088706;28;20062;-77
2023/02/19 06:04:12;;;;;;;13.45;7.63;;;;;;;5.59;60.92;95207.28;5072544;28;20024;-77
2023/02/19 06:06:38;;;;;;;12.32;6.88;;;;;;;5.65;60.82;95217.22;5069629;28;20408;-76
2023/02/19 06:09:04;;;;;;;11.68;6.90;;;;;;;5.72;60.71;95210.81;5104111;28;20036;-76
2023/02/19 06:11:29;;;;;;;9.55;5.80;;;;;;;5.92;59.82;95217.41;5088268;28;20040;-76
2023/02/19 06:13:55;;;;;;;11.18;6.68;;;;;;;6.22;58.02;95225.13;5070442;28;20063;-76
2023/02/19 06:16:20;;;;;;;22.60;16.35;;;;;;;6.19;58.26;95227.88;5086580;28;20055;-76
2023/02/19 06:18:46;;;;;;;19.88;13.88;;;;;;;6.20;58.51;95219.22;5086936;28;20092;-76
2023/02/19 06:21:12;;;;;;;23.27;15.00;;;;;;;6.38;58.22;95225.06;5070803;28;20039;-76
2023/02/19 06:23:37;;;;;;;21.58;14.10;;;;;;;6.40;58.68;95230.09;5070787;28;20012;-76
2023/02/19 06:26:17;;;;;;;16.02;8.95;;;;;;;6.49;58.76;95230.41;5072220;28;20028;-79
2023/02/19 06:28:43;;;;;;;11.27;7.38;;;;;;;6.34;58.51;95194.34;5075163;28;20028;-77
2023/02/19 06:31:09;;;;;;;11.25;6.15;;;;;;;6.65;58.36;95237.22;5073074;28;20077;-76
2023/02/19 06:33:34;;;;;;;10.88;6.40;;;;;;;6.65;58.60;95222.53;5073033;28;20524;-75
2023/02/19 06:36:01;;;;;;;10.38;5.93;;;;;;;7.03;56.34;95224.53;5089993;28;20036;-75
2023/02/19 06:38:26;;;;;;;9.95;6.05;;;;;;;6.93;56.59;95213.09;5068278;28;20024;-76
2023/02/19 06:40:52;;;;;;;12.52;8.73;;;;;;;7.21;56.87;95238.03;5070813;28;20032;-75
2023/02/19 06:43:17;;;;;;;15.07;10.18;;;;;;;6.82;57.32;95189.69;5088079;28;20035;-76
2023/02/19 06:45:43;;;;;;;11.20;7.50;;;;;;;7.22;56.76;95213.06;5070505;28;20028;-76
2023/02/19 06:48:08;;;;;;;9.98;6.13;;;;;;;7.51;55.77;95230.09;5068885;28;20047;-76
2023/02/19 06:50:34;;;;;;;10.23;6.00;;;;;;;7.58;53.66;95182.25;5088293;28;20035;-76
2023/02/19 06:52:59;;;;;;;7.85;5.70;;;;;;;8.29;53.96;95227.56;5087053;28;20607;-75
2023/02/19 06:55:25;;;;;;;13.63;8.93;;;;;;;8.87;52.92;95233.13;5087085;28;20028;-76
2023/02/19 06:57:50;;;;;;;23.25;14.85;;;;;;;9.50;50.55;95222.69;5085124;28;20500;-78
2023/02/19 07:00:16;;;;;;;34.97;20.85;;;;;;;10.53;48.37;95228.94;5103721;28;20035;-78
2023/02/19 07:02:42;;;;;;;23.90;14.35;;;;;;;11.31;46.13;95211.63;5085686;28;20051;-78
2023/02/19 07:05:07;;;;;;;18.95;11.82;;;;;;;11.58;44.49;95167.78;5086929;28;20592;-80
2023/02/19 07:07:33;;;;;;;20.23;11.55;;;;;;;11.81;43.67;95171.13;5086784;28;20024;-79
2023/02/19 07:09:58;;;;;;;12.35;7.32;;;;;;;12.46;41.96;95155.38;5088421;28;20040;-78
2023/02/19 07:12:24;;;;;;;11.20;7.13;;;;;;;13.26;40.22;95165.00;5090471;28;20139;-78
2023/02/19 07:14:49;;;;;;;11.00;7.43;;;;;;;14.49;39.17;95224.47;5087153;28;20091;-79
2023/02/19 07:17:15;;;;;;;13.85;7.35;;;;;;;15.53;36.74;95222.53;5051263;28;20035;-79
2023/02/19 07:19:40;;;;;;;13.32;7.68;;;;;;;16.03;34.88;95169.66;5086627;28;20035;-78
2023/02/19 07:22:06;;;;;;;10.15;6.43;;;;;;;17.38;32.02;95219.00;5069714;28;20039;-78
2023/02/19 07:24:31;;;;;;;9.95;6.95;;;;;;;17.27;30.56;95145.75;5087372;28;20109;-78
2023/02/19 07:26:57;;;;;;;11.02;6.93;;;;;;;17.47;31.71;95211.97;5086306;28;20440;-78
2023/02/19 07:29:22;;;;;;;13.38;8.00;;;;;;;16.96;30.95;95208.47;5085081;28;20101;-78
2023/02/19 07:31:48;;;;;;;13.48;8.20;;;;;;;17.52;30.25;95182.59;5087653;28;20406;-78
2023/02/19 07:34:13;;;;;;;12.07;8.50;;;;;;;18.28;30.11;95200.78;5087640;28;20125;-76
2023/02/19 07:36:39;;;;;;;12.50;8.77;;;;;;;17.81;29.50;95190.88;5085732;28;20766;-77
2023/02/19 07:39:04;;;;;;;17.73;8.38;;;;;;;17.08;30.23;95201.16;5087615;28;20414;-76
2023/02/19 07:41:29;;;;;;;13.65;9.35;;;;;;;18.58;28.81;95185.28;5087499;28;20039;-77
2023/02/19 07:43:55;;;;;;;16.55;8.57;;;;;;;19.26;27.78;95196.31;5086022;28;20047;-76
2023/02/19 07:46:21;;;;;;;14.10;9.05;;;;;;;20.04;26.40;95180.38;5084687;28;20413;-77
2023/02/19 07:48:46;;;;;;;13.10;8.68;;;;;;;20.60;25.76;95179.28;5068503;28;20123;-77
2023/02/19 07:51:15;;;;;;;13.93;8.00;;;;;;;21.37;24.77;95189.53;5054736;28;20040;-77
2023/02/19 07:53:41;;;;;;;10.95;7.78;;;;;;;22.16;23.97;95183.44;5080211;28;20436;-78
2023/02/19 07:56:07;;;;;;;11.70;8.50;;;;;;;21.78;23.44;95118.38;5085960;28;20571;-79
2023/02/19 07:58:33;;;;;;;11.02;8.23;;;;;;;23.03;23.00;95177.81;5087866;28;20044;-76
2023/02/19 08:01:08;;;;;;;10.43;8.18;;;;;;;24.07;22.89;95182.94;5069800;28;20043;-81
2023/02/19 08:03:34;;;;;;;13.27;8.60;;;;;;;24.40;21.56;95168.06;5086986;28;20024;-77
2023/02/19 08:06:00;;;;;;;13.27;9.60;;;;;;;25.24;20.70;95174.53;5086029;28;20032;-76
2023/02/19 08:08:25;;;;;;;15.15;9.77;;;;;;;25.60;20.91;95181.94;5088764;28;20126;-78
2023/02/19 08:13:35;;;;;;;16.02;10.25;;;;;;;26.02;19.51;95102.53;5088920;28;20121;-79
2023/02/19 08:16:00;;;;;;;10.73;8.38;;;;;;;26.91;19.55;95168.00;5090154;28;20040;-84
2023/02/19 08:18:26;;;;;;;12.10;8.60;;;;;;;27.19;18.10;95145.34;5089535;28;20071;-81
2023/02/19 08:20:53;;;;;;;12.20;8.77;;;;;;;26.69;18.94;95058.34;5101609;28;20063;-78
2023/02/19 08:23:21;;;;;;;13.25;8.88;;;;;;;26.49;18.64;95103.81;5088892;28;20525;-81
2023/02/19 08:25:47;;;;;;;12.07;8.32;;;;;;;25.67;19.14;95172.13;5101859;28;20047;-84
2023/02/19 08:28:15;;;;;;;11.73;8.25;;;;;;;23.17;21.25;95139.78;5088953;28;20025;-85
2023/02/19 08:30:43;;;;;;;11.32;7.28;;;;;;;21.69;23.27;95182.16;5055362;28;20486;-84
2023/02/19 08:33:09;;;;;;;11.70;7.88;;;;;;;20.67;24.49;95193.38;5071889;28;20043;-81
2023/02/19 08:35:35;;;;;;;10.20;7.50;;;;;;;19.53;25.76;95092.25;5090634;28;20065;-81
2023/02/19 08:38:00;;;;;;;12.07;8.60;;;;;;;18.19;27.81;95132.56;5089700;28;20029;-80
2023/02/19 08:40:26;;;;;;;15.85;9.10;;;;;;;16.58;29.99;95086.47;5070025;28;20036;-83
2023/02/19 08:42:52;;;;;;;10.68;8.02;;;;;;;16.45;30.56;95134.91;5069774;28;20104;-82
2023/02/19 08:45:17;;;;;;;10.80;6.80;;;;;;;16.19;31.27;95178.66;5087568;28;20024;-83
2023/02/19 08:47:43;;;;;;;15.93;6.97;;;;;;;15.59;32.37;95187.91;5085756;28;20521;-80
2023/02/19 08:50:08;;;;;;;9.77;6.93;;;;;;;15.68;32.70;95190.59;5087161;28;20024;-82
2023/02/19 08:52:34;;;;;;;9.35;6.18;;;;;;;14.67;33.10;95086.00;5088148;28;20501;-81
2023/02/19 08:55:01;;;;;;;13.48;6.32;;;;;;;15.39;32.99;95170.69;5084845;28;20032;-79
2023/02/19 08:57:28;;;;;;;11.95;6.63;;;;;;;14.83;33.59;95091.44;5088248;28;20135;-83
2023/02/19 08:59:56;;;;;;;13.00;6.88;;;;;;;15.26;33.67;95175.44;5080328;28;20028;-77
2023/02/19 09:02:22;;;;;;;13.05;6.65;;;;;;;15.28;34.17;95140.31;5107833;28;20089;-79
2023/02/19 09:04:48;;;;;;;8.57;5.40;;;;;;;14.82;33.60;95066.25;5070173;28;20035;-78
2023/02/19 09:07:17;;;;;;;10.75;5.68;;;;;;;15.34;33.93;95157.22;5085911;28;20055;-79
2023/02/19 09:09:43;;;;;;;10.32;5.43;;;;;;;14.66;33.26;95077.34;5087680;28;20106;-76
2023/02/19 09:12:09;;;;;;;7.88;5.18;;;;;;;14.94;33.97;95104.31;5067189;28;20044;-80
2023/02/19 09:14:35;;;;;;;8.10;5.20;;;;;;;14.88;34.40;95093.63;5124788;27;20028;-82
2023/02/19 09:17:01;;;;;;;11.45;5.45;;;;;;;15.45;34.04;95151.78;5057119;28;20055;-75
2023/02/19 09:19:27;;;;;;;9.05;5.68;;;;;;;15.41;33.55;95142.59;5089204;28;20028;-78
2023/02/19 09:21:52;;;;;;;7.65;4.95;;;;;;;15.40;33.71;95140.91;5091330;28;20035;-79
2023/02/19 09:24:18;;;;;;;10.02;5.15;;;;;;;15.18;33.65;95137.78;5073611;28;20260;-78
2023/02/19 09:26:43;;;;;;;10.18;5.45;;;;;;;15.17;33.64;95135.28;5093684;28;20023;-78
2023/02/19 09:29:09;;;;;;;9.35;5.00;;;;;;;15.19;34.35;95131.56;5093306;28;20036;-78
2023/02/19 09:31:34;;;;;;;8.55;5.15;;;;;;;15.29;34.03;95130.66;5092267;28;20031;-78
2023/02/19 09:34:00;;;;;;;8.50;5.35;;;;;;;15.46;33.58;95129.03;5092427;28;20032;-78
2023/02/19 09:36:25;;;;;;;9.18;4.82;;;;;;;15.47;33.94;95123.66;5092422;28;20028;-78
2023/02/19 09:38:51;;;;;;;9.05;5.70;;;;;;;15.10;34.03;95098.44;5075215;28;20096;-78
2023/02/19 09:41:30;;;;;;;8.38;5.28;;;;;;;14.93;34.71;95127.97;5093413;28;20024;-77
2023/02/19 09:43:59;;;;;;;11.20;6.75;;;;;;;14.93;34.41;95113.13;5075273;28;20036;-78
2023/02/19 09:46:30;;;;;;;8.43;4.95;;;;;;;15.09;34.31;95125.56;5093555;28;20028;-78
2023/02/19 09:49:32;;;;;;;6.80;5.15;;;;;;;15.03;34.28;95093.94;5090031;28;20047;-77
2023/02/19 09:52:11;;;;;;;7.43;5.20;;;;;;;14.91;35.08;95119.47;5051506;28;20106;-77
2023/02/19 09:54:36;;;;;;;8.05;5.53;;;;;;;14.65;35.05;95091.38;5101759;28;20509;-76
2023/02/19 09:57:02;;;;;;;14.38;10.55;;;;;;;15.02;34.93;95108.81;5071718;28;20120;-77
2023/02/19 09:59:35;;;;;;;8.30;5.47;;;;;;;14.97;34.83;95097.97;5073559;28;20129;-76
2023/02/19 10:02:19;;;;;;;8.35;5.85;;;;;;;15.25;34.84;95105.78;5074341;28;20047;-76
2023/02/19 10:04:47;;;;;;;8.23;5.30;;;;;;;15.39;35.12;95092.16;5076433;28;20035;-77
2023/02/19 10:07:39;;;;;;;8.43;5.65;;;;;;;15.43;34.47;95083.03;5058377;28;20116;-77
2023/02/19 10:10:29;;;;;;;5.95;4.28;;;;;;;15.63;34.61;95076.66;5089727;28;20048;-77
2023/02/19 10:12:58;;;;;;;8.65;6.05;;;;;;;15.69;34.62;95075.28;5085400;28;20051;-77
2023/02/19 10:15:34;;;;;;;16.83;14.38;;;;;;;15.65;34.54;95066.84;5075272;28;20115;-77
2023/02/19 10:17:59;;;;;;;6.82;5.55;;;;;;;15.83;34.29;95064.25;5092517;28;20049;-77
2023/02/19 10:20:26;;;;;;;7.22;4.13;;;;;;;16.01;34.10;95061.56;5074736;28;20101;-77
2023/02/19 10:23:03;;;;;;;8.50;6.75;;;;;;;16.24;33.54;95061.03;5091130;28;20157;-77
2023/02/19 10:25:29;;;;;;;5.95;4.40;;;;;;;16.22;32.90;95042.88;5091304;28;20036;-77
2023/02/19 10:27:57;;;;;;;8.50;6.95;;;;;;;16.04;33.24;95045.53;5057448;28;20399;-77
2023/02/19 10:30:23;;;;;;;5.90;3.63;;;;;;;16.06;32.81;95038.34;5074622;28;20055;-77
2023/02/19 10:33:10;;;;;;;5.45;4.47;;;;;;;16.15;33.22;95027.91;5074151;28;20058;-78
2023/02/19 10:35:37;;;;;;;7.05;3.67;;;;;;;16.14;32.58;95024.47;5092649;28;20063;-77
2023/02/19 10:38:04;;;;;;;12.50;8.05;;;;;;;16.22;33.25;95023.69;5074042;28;20028;-77
2023/02/19 10:40:30;;;;;;;10.57;7.28;;;;;;;16.13;33.20;95006.28;5074676;28;20028;-77
2023/02/19 10:42:57;;;;;;;9.65;6.82;;;;;;;16.25;33.15;95007.66;5107947;28;20062;-77
2023/02/19 10:46:00;;;;;;;7.70;5.20;;;;;;;16.27;33.02;95018.81;5074549;28;20036;-77
2023/02/19 10:48:30;;;;;;;6.63;4.85;;;;;;;16.00;32.86;94983.13;5052752;28;20028;-78
2023/02/19 10:51:03;;;;;;;8.43;4.30;;;;;;;16.26;33.01;95001.44;5065022;28;20501;-78
2023/02/19 10:53:58;;;;;;;5.40;3.60;;;;;;;16.35;32.87;94991.78;5110313;28;20481;-78
2023/02/19 10:56:25;;;;;;;7.22;4.30;;;;;;;16.37;31.96;94980.19;5079968;28;20130;-78
2023/02/19 10:58:50;;;;;;;6.82;4.00;;;;;;;16.39;31.98;94966.94;5076879;28;20135;-77
2023/02/19 11:01:20;;;;;;;7.30;4.25;;;;;;;16.38;32.35;94978.38;5110995;28;20035;-78
2023/02/19 11:03:50;;;;;;;6.20;4.35;;;;;;;16.00;32.98;94956.94;5110828;28;20051;-78
2023/02/19 11:06:17;;;;;;;8.45;4.30;;;;;;;16.15;32.80;94955.34;5111073;28;20036;-78
2023/02/19 11:08:42;;;;;;;6.25;4.75;;;;;;;16.37;32.62;94951.34;5072477;28;20513;-78
2023/02/19 11:11:08;;;;;;;8.85;5.43;;;;;;;16.44;32.62;94956.78;5099732;28;20032;-78
2023/02/19 11:13:36;;;;;;;6.38;4.70;;;;;;;16.44;33.01;94954.16;5068091;28;20546;-78
2023/02/19 11:16:02;;;;;;;8.88;4.47;;;;;;;16.35;33.12;94936.75;5086174;28;20016;-75
2023/02/19 11:18:29;;;;;;;7.82;4.75;;;;;;;16.33;33.02;94944.78;5070832;28;20339;-77
2023/02/19 11:20:57;;;;;;;8.20;4.53;;;;;;;16.37;32.61;94945.28;5085379;28;20085;-77
2023/02/19 11:23:35;;;;;;;7.60;4.97;;;;;;;16.47;32.43;94944.16;5121994;27;20328;-77
2023/02/19 11:26:03;;;;;;;11.63;5.78;;;;;;;16.33;32.66;94936.94;5121657;27;20028;-75
2023/02/19 11:28:37;;;;;;;8.43;4.43;;;;;;;16.50;32.20;94932.53;5088602;28;20053;-79
2023/02/19 11:31:18;;;;;;;8.55;4.32;;;;;;;16.54;31.78;94924.19;5093451;28;20115;-77
2023/02/19 11:33:50;;;;;;;9.93;4.40;;;;;;;16.49;31.86;94923.00;5087424;28;20445;-76
2023/02/19 11:36:16;;;;;;;6.78;4.28;;;;;;;16.65;32.12;94917.00;5072087;28;20072;-74
2023/02/19 11:38:42;;;;;;;6.03;4.25;;;;;;;16.67;31.79;94912.41;5088775;28;20040;-77
2023/02/19 11:41:35;;;;;;;7.80;3.75;;;;;;;16.69;31.81;94908.66;5087404;28;20469;-77
2023/02/19 11:44:29;;;;;;;6.90;4.20;;;;;;;16.70;32.10;94905.03;5088085;28;20024;-77
2023/02/19 11:47:28;;;;;;;7.60;4.47;;;;;;;16.11;32.24;94896.38;5088605;28;20524;-78
2023/02/19 11:50:12;;;;;;;6.38;4.03;;;;;;;16.35;32.69;94892.19;5088133;28;20032;-75
2023/02/19 11:53:05;;;;;;;7.22;4.18;;;;;;;16.40;32.21;94890.72;5087111;28;20039;-76
2023/02/19 11:56:01;;;;;;;9.70;6.25;;;;;;;16.60;31.83;94882.56;5088468;28;20109;-74
2023/02/19 11:58:54;;;;;;;5.75;4.07;;;;;;;16.54;32.09;94884.03;5086862;28;20513;-75
2023/02/19 12:02:01;;;;;;;6.85;4.47;;;;;;;16.47;31.75;94878.63;5088036;28;20039;-75
2023/02/19 12:05:25;;;;;;;7.00;4.30;;;;;;;16.62;31.86;94875.34;5045191;28;20037;-76